Pays
Station

 

Conditions  météo  pour  Minneapolis, Flying Cloud Airport  -  Etats-Unis    Etats-Unis

  
-17 °C
    
 
 

METAR pour Minneapolis, Flying Cloud Airport :

KFCM 100253Z 29010KT 10SM CLR M17/M22 A2994 RMK AO2 SLP157 T11721222 53031

 

Voici le bulletin pour Minneapolis, Flying Cloud Airport - Etats-Unis.
 
Le bulletin a été fait il y a 42 minutes, à 02:53 UTC .
Le vent soufflait à la vitesse de 5.1 mètres par seconde de Ouest/Nord-ouest (290°).
 
La température était de -17 °C, avec un point de rosée à -22 °C.
La température ressentie était de -25 °C.
 
La pression atmosphérique était de 1014 hPa.
L'humidité relative était de 64.9%.
 
Le ciel était clair.
 
La visibilité globale était de 16.1 kilomètres.
 

 
 
 

Pays :   A   B   C   D   E   F   G   H   I   J   K   L   M   N   O   P   Q   R   S   T   U   V   W   Y   Z

 

Partenaires :  Info Météo avec Met'info
Météo Marine avec MeteoMarine.net
Infos Site  |  Infos Légales  |  Crédits  |  Confidentialité
Contactez-nous  |  Ajouter aux favoris
© 2013-2019 METAR - Tous droits réservés